Friday, November 17, 2017, 4:14 PM EST
Back to Local

KLEW, Auburn-lewiston

Location: Auburn, ME, United States Lat: 44.05
Local Time: 4:14 PM EST (21:14 GMT) Lon: -70.283
Time Zone: US/Eastern Elev: 288 ft

Show me the last for .
Show Decoded

2017-11-17 14:56 METAR KLEW 171956Z AUTO 32019G27KT 10SM CLR 02/M06 A2982 RMK AO2 PK WND
                 31028/1933 SLP116 T00171061 FZRANO =
2017-11-17 13:56 METAR KLEW 171856Z AUTO 30016G21KT 10SM SCT035 02/M06 A2980 RMK AO2 PK WND
                 31027/1826 SLP108 T00221056 FZRANO =
2017-11-17 12:56 METAR KLEW 171756Z AUTO 31016G23KT 280V340 10SM BKN033 02/M05 A2979 RMK AO2 PK
                 WND 33032/1727 SLP105 T00171050 10028 20011 50004 FZRANO =
2017-11-17 12:39 METAR KLEW 171739Z AUTO 32018G26KT 10SM BKN031 BKN036 02/M05 A2979 RMK AO2 PK
                 WND 33032/1727 FZRANO =
2017-11-17 11:56 METAR KLEW 171656Z AUTO 31012G28KT 10SM OVC029 02/M05 A2979 RMK AO2 PK WND
                 31028/1652 SLP106 T00171050 FZRANO =
2017-11-17 10:56 METAR KLEW 171556Z AUTO 30011G25KT 10SM OVC031 02/M04 A2978 RMK AO2 PK WND
                 31028/1506 SLP102 T00171044 FZRANO =
2017-11-17 10:11 METAR KLEW 171511Z AUTO 30022G28KT 10SM BKN029 03/M04 A2979 RMK AO2 PK WND
                 31028/1506 =
2017-11-17 09:56 METAR KLEW 171456Z AUTO 30020G31KT 10SM SCT031 02/M04 A2978 RMK AO2 PK WND
                 30031/1451 SLP101 T00221039 51021 FZRANO =
2017-11-17 08:56 METAR KLEW 171356Z AUTO 31016G23KT 10SM FEW031 BKN090 02/M04 A2976 RMK AO2 PK
                 WND 30026/1329 SLP095 T00221039 FZRANO TSNO =
2017-11-17 07:56 METAR KLEW 171256Z AUTO 30016G24KT 10SM OVC100 02/M04 A2974 RMK AO2 SLP087
                 T00221039 FZRANO =
2017-11-17 06:56 METAR KLEW 171156Z AUTO 32012G18KT 10SM FEW100 02/M03 A2972 RMK AO2 SLP080 70043
                 T00221028 10028 20017 53028 FZRANO =
2017-11-17 05:56 METAR KLEW 171056Z AUTO 32008KT 10SM FEW030 SCT095 02/M01 A2969 RMK AO2 SLP068
                 T00221011 FZRANO =
2017-11-17 04:56 METAR KLEW 170956Z AUTO 33007KT 280V350 10SM OVC095 03/00 A2965 RMK AO2 SLP057
                 T00280000 =
2017-11-17 03:56 METAR KLEW 170856Z AUTO 30010KT 10SM CLR 02/01 A2964 RMK AO2 SLP051 T00220011
                 53009 FZRANO =
2017-11-17 02:56 METAR KLEW 170756Z AUTO 25004KT 10SM FEW027 02/01 A2962 RMK AO2 SLP047 T00170011
                 FZRANO =
2017-11-17 02:47 METAR KLEW 170747Z AUTO 31003KT 10SM SCT003 SCT027 02/02 A2962 RMK AO2 FZRANO =
2017-11-17 02:23 METAR KLEW 170723Z AUTO 29005KT 3SM BR OVC003 02/02 A2961 RMK AO2 FZRANO =
2017-11-17 02:15 METAR KLEW 170715Z AUTO 29006KT 1 1/4SM BR OVC003 02/02 A2961 RMK AO2 FZRANO =
2017-11-17 02:03 METAR KLEW 170703Z AUTO 29004KT 3/4SM BR OVC003 02/02 A2961 RMK AO2 FZRANO =
2017-11-17 01:56 METAR KLEW 170656Z AUTO 30004KT 1 3/4SM BR OVC003 03/02 A2961 RMK AO2 SLP042
                 T00280022 =
2017-11-17 01:43 METAR KLEW 170643Z AUTO 31004KT 1 3/4SM BR OVC003 03/02 A2961 RMK AO2 VIS 1
                 1/4V4 =
2017-11-17 01:28 METAR KLEW 170628Z AUTO 33004KT 7SM OVC003 03/02 A2961 RMK AO2 =
2017-11-17 00:59 METAR KLEW 170559Z AUTO 30004KT 3SM BR BKN005 OVC010 02/02 A2961 RMK AO2 CIG
                 004V007 FZRANO =
2017-11-17 00:56 METAR KLEW 170556Z AUTO 31003KT 2SM BR BKN007 OVC012 02/02 A2961 RMK AO2 CIG
                 004V011 SLP042 T00220017 10028 20022 58016 FZRANO =
2017-11-17 00:52 METAR KLEW 170552Z AUTO 00000KT 1 1/4SM BR BKN009 OVC012 02/02 A2961 RMK AO2 VIS
                 1/2V3 CIG 006V011 FZRANO =
2017-11-17 00:44 METAR KLEW 170544Z AUTO 00000KT 3/4SM BR FEW003 OVC009 02/02 A2961 RMK AO2 CIG
                 007V013 FZRANO =
2017-11-17 00:41 METAR KLEW 170541Z AUTO 00000KT 1 1/4SM BR FEW003 OVC009 02/02 A2961 RMK AO2 VIS
                 1/2V3 CIG 007V013 FZRANO =
2017-11-17 00:28 METAR KLEW 170528Z AUTO 00000KT 2 1/2SM BR FEW003 BKN009 OVC014 02/02 A2961 RMK
                 AO2 CIG 007V011 FZRANO =
2017-11-17 00:19 METAR KLEW 170519Z AUTO 00000KT 2 1/2SM BR FEW003 SCT009 OVC016 02/02 A2961 RMK
                 AO2 FZRANO =
2017-11-17 00:17 METAR KLEW 170517Z AUTO 00000KT 3SM BR FEW003 SCT011 OVC016 03/02 A2961 RMK AO2
                 =
2017-11-16 23:56 METAR KLEW 170456Z AUTO 00000KT 3SM BR OVC014 03/02 A2962 RMK AO2 SLP047
                 T00280022 =
2017-11-16 23:20 METAR KLEW 170420Z AUTO 00000KT 6SM BR SCT006 OVC014 03/02 A2963 RMK AO2 =
2017-11-16 22:56 METAR KLEW 170356Z AUTO 00000KT 6SM BR OVC006 03/02 A2964 RMK AO2 SLP054
                 T00280022 400331056 =
2017-11-16 22:10 METAR KLEW 170310Z AUTO 00000KT 7SM OVC006 03/02 A2965 RMK AO2 =
2017-11-16 21:56 METAR KLEW 170256Z AUTO 30003KT 7SM OVC004 03/02 A2966 RMK AO2 SLP059 T00280022
                 58011 =
2017-11-16 20:56 METAR KLEW 170156Z AUTO 33004KT 7SM OVC004 03/02 A2967 RMK AO2 SLP063 T00280022
                 =
2017-11-16 19:56 METAR KLEW 170056Z AUTO 35004KT 6SM BR OVC004 03/03 A2968 RMK AO2 SLP067
                 T00280028 =
2017-11-16 18:56 METAR KLEW 162356Z AUTO 36008KT 8SM OVC004 03/03 A2969 RMK AO2 RAE23UPB23E41
                 PRESFR SLP070 P0000 60037 T00280028 10033 20022 58010 =
2017-11-16 17:56 METAR KLEW 162256Z AUTO 34005KT 6SM -RA BR BKN004 OVC010 03/03 A2972 RMK AO2
                 SLP080 P0006 T00330028 =
2017-11-16 17:35 METAR KLEW 162235Z AUTO 04006KT 4SM RA BR OVC004 03/03 A2971 RMK AO2 CIG 002V009
                 PRESFR P0003 =
2017-11-16 17:06 METAR KLEW 162206Z AUTO 29004KT 5SM -RA BR FEW003 BKN008 OVC013 03/03 A2973 RMK
                 AO2 CIG 006V010 P0001 =
2017-11-16 16:56 METAR KLEW 162156Z AUTO 03004KT 6SM -RA BR SCT003 OVC011 03/03 A2972 RMK AO2 CIG
                 007V013 SLP078 P0005 T00280028 =
2017-11-16 16:41 METAR KLEW 162141Z AUTO 02005KT 4SM RA BR BKN003 OVC013 03/02 A2972 RMK AO2
                 PRESFR P0004 =
2017-11-16 16:27 METAR KLEW 162127Z AUTO 36003KT 2 1/2SM RA BR OVC003 03/02 A2974 RMK AO2 P0002 =

Support USWX by starting your Amazon purchase here.